createdAt,value
2023-02-18T00:02:18.095Z,77.40
2023-02-18T00:05:24.331Z,77.53
2023-02-18T00:08:28.880Z,77.58
2023-02-18T00:11:37.791Z,77.55
2023-02-18T00:14:44.305Z,77.48
2023-02-18T00:17:50.543Z,77.64
2023-02-18T00:20:55.090Z,77.63
2023-02-18T00:24:01.282Z,77.51
2023-02-18T00:27:05.777Z,77.47
2023-02-18T00:30:13.635Z,77.53
2023-02-18T00:33:19.885Z,77.53
2023-02-18T00:36:24.872Z,77.47
2023-02-18T00:39:31.697Z,77.48
2023-02-18T00:42:38.005Z,77.42
2023-02-18T00:45:44.267Z,77.40
2023-02-18T00:48:50.894Z,77.33
2023-02-18T00:51:57.322Z,77.36
2023-02-18T00:55:03.532Z,77.37
2023-02-18T00:58:08.040Z,77.27
2023-02-18T01:01:14.727Z,77.30
2023-02-18T01:04:21.387Z,77.17
2023-02-18T01:07:27.777Z,77.05
2023-02-18T01:10:34.224Z,76.90
2023-02-18T01:13:41.168Z,76.90
2023-02-18T01:16:47.496Z,76.78
2023-02-18T01:19:53.520Z,76.85
2023-02-18T01:22:59.928Z,76.70
2023-02-18T01:26:06.727Z,76.56
2023-02-18T01:29:13.357Z,76.60
2023-02-18T01:32:19.960Z,76.50
2023-02-18T01:35:27.057Z,76.40
2023-02-18T01:38:33.369Z,76.37
2023-02-18T01:41:39.603Z,76.36
2023-02-18T01:44:45.193Z,76.19
2023-02-18T01:47:51.569Z,76.20
2023-02-18T01:51:02.212Z,76.02
2023-02-18T01:54:10.935Z,75.96
2023-02-18T01:57:20.112Z,75.95
2023-02-18T02:00:26.828Z,75.96
2023-02-18T02:03:33.149Z,75.98
2023-02-18T02:06:39.591Z,75.91
2023-02-18T02:09:46.977Z,75.95
2023-02-18T02:13:02.592Z,75.94
2023-02-18T02:16:13.133Z,76.02
2023-02-18T02:19:51.449Z,76.14
2023-02-18T02:23:17.526Z,76.00
2023-02-18T02:27:00.469Z,76.08
2023-02-18T02:30:42.361Z,76.06
2023-02-18T02:34:19.076Z,76.03
2023-02-18T02:37:35.403Z,76.10
2023-02-18T02:40:48.205Z,76.09
2023-02-18T02:44:03.660Z,76.15
2023-02-18T02:47:15.818Z,76.04
2023-02-18T02:50:27.974Z,75.99
2023-02-18T02:53:35.599Z,75.95
2023-02-18T02:56:41.887Z,75.82
2023-02-18T02:59:53.968Z,75.95
2023-02-18T03:03:28.905Z,75.88
2023-02-18T03:06:56.833Z,75.78
2023-02-18T03:10:18.634Z,75.90
2023-02-18T03:13:35.400Z,75.78
2023-02-18T03:16:50.593Z,75.70
2023-02-18T03:20:03.132Z,75.75
2023-02-18T03:23:18.017Z,75.71
2023-02-18T03:47:03.652Z,75.42
2023-02-18T03:50:11.712Z,75.32
2023-02-18T03:53:17.877Z,75.37
2023-02-18T03:56:22.990Z,75.33
2023-02-18T03:59:29.259Z,75.22
2023-02-18T04:02:33.801Z,75.23
2023-02-18T04:05:39.869Z,75.01
2023-02-18T04:08:46.537Z,74.99
2023-02-18T04:11:52.761Z,74.86
2023-02-18T04:14:57.219Z,74.81
2023-02-18T04:18:03.170Z,74.75
2023-02-18T04:21:09.882Z,74.65
2023-02-18T04:24:16.109Z,74.53
2023-02-18T04:27:20.752Z,74.42
2023-02-18T04:30:27.136Z,74.43
2023-02-18T04:33:33.478Z,74.38
2023-02-18T04:36:38.067Z,74.40
2023-02-18T04:39:44.190Z,74.37
2023-02-18T04:42:50.359Z,74.31
2023-02-18T04:45:56.305Z,74.27
2023-02-18T04:49:02.566Z,74.20
2023-02-18T04:52:07.468Z,74.06
2023-02-18T04:55:13.676Z,74.00
2023-02-18T04:58:18.181Z,73.91
2023-02-18T05:01:24.497Z,73.72
2023-02-18T05:04:30.889Z,73.71
2023-02-18T05:07:37.493Z,73.57
2023-02-18T05:10:43.727Z,73.43
2023-02-18T05:13:50.045Z,73.20
2023-02-18T05:16:54.567Z,72.78
2023-02-18T05:20:00.863Z,72.26
2023-02-18T05:23:07.079Z,72.00
2023-02-18T05:26:11.675Z,71.81
2023-02-18T05:29:17.970Z,71.47
2023-02-18T05:32:22.476Z,71.39
2023-02-18T05:35:28.667Z,70.97
2023-02-18T05:38:33.294Z,70.83
2023-02-18T05:41:39.642Z,70.64
2023-02-18T05:44:44.105Z,70.53
2023-02-18T05:47:50.266Z,70.38
2023-02-18T05:50:56.943Z,70.43
2023-02-18T05:54:03.147Z,70.20
2023-02-18T05:57:07.628Z,70.02
2023-02-18T06:00:15.734Z,69.85
2023-02-18T06:03:21.980Z,69.96
2023-02-18T06:06:26.490Z,69.65
2023-02-18T06:09:32.721Z,69.31
2023-02-18T06:12:38.974Z,69.03
2023-02-18T06:15:43.528Z,68.73
2023-02-18T06:18:49.680Z,68.77
2023-02-18T06:21:56.301Z,68.24
2023-02-18T06:25:02.564Z,68.20
2023-02-18T06:28:07.118Z,67.95
2023-02-18T06:31:13.437Z,67.86
2023-02-18T06:34:19.735Z,67.80
2023-02-18T06:37:24.285Z,67.82
2023-02-18T06:40:30.452Z,67.61
2023-02-18T06:43:36.930Z,67.51
2023-02-18T06:46:43.149Z,67.48
2023-02-18T06:49:49.427Z,67.45
2023-02-18T06:52:53.930Z,67.30
2023-02-18T06:56:00.328Z,67.12
2023-02-18T06:59:06.509Z,67.08
2023-02-18T07:02:14.255Z,67.01
2023-02-18T07:05:20.632Z,66.68
2023-02-18T07:08:25.055Z,66.39
2023-02-18T07:11:31.261Z,66.34
2023-02-18T07:14:35.559Z,66.08
2023-02-18T07:17:41.817Z,65.94
2023-02-18T07:20:48.091Z,65.81
2023-02-18T07:23:52.638Z,65.70
2023-02-18T07:26:58.885Z,65.50
2023-02-18T07:30:05.688Z,65.64
2023-02-18T07:33:11.901Z,65.25
2023-02-18T07:36:16.449Z,64.99
2023-02-18T07:39:22.837Z,64.98
2023-02-18T07:42:29.036Z,64.84
2023-02-18T07:45:33.874Z,64.79
2023-02-18T07:48:40.310Z,64.65
2023-02-18T07:51:44.931Z,64.70
2023-02-18T07:54:51.295Z,64.49
2023-02-18T07:58:01.039Z,64.37
2023-02-18T08:01:11.052Z,64.04
2023-02-18T08:04:17.383Z,63.88
2023-02-18T08:07:24.572Z,63.65
2023-02-18T08:10:30.844Z,63.34
2023-02-18T08:13:35.336Z,63.36
2023-02-18T08:16:41.598Z,63.31
2023-02-18T08:19:46.141Z,63.33
2023-02-18T08:22:52.422Z,63.05
2023-02-18T08:25:56.910Z,62.80
2023-02-18T08:29:03.603Z,62.59
2023-02-18T08:32:09.929Z,62.46
2023-02-18T08:35:17.058Z,62.30
2023-02-18T08:38:24.409Z,62.16
2023-02-18T08:41:30.644Z,62.22
2023-02-18T08:44:36.876Z,62.19
2023-02-18T08:48:17.097Z,62.01
2023-02-18T08:51:17.668Z,61.89
2023-02-18T08:54:24.248Z,61.63
2023-02-18T08:57:30.490Z,61.55
2023-02-18T09:00:35.026Z,61.38
2023-02-18T09:03:42.249Z,61.52
2023-02-18T09:06:48.480Z,61.20
2023-02-18T09:09:52.999Z,61.04
2023-02-18T09:12:59.281Z,60.97
2023-02-18T09:16:05.349Z,60.81
2023-02-18T09:19:11.759Z,60.71
2023-02-18T09:22:18.190Z,60.65
2023-02-18T09:25:24.865Z,60.66
2023-02-18T09:28:30.834Z,60.58
2023-02-18T09:31:38.121Z,60.48
2023-02-18T09:34:44.484Z,60.39
2023-02-18T09:37:48.998Z,60.50
2023-02-18T09:40:57.075Z,60.16
2023-02-18T09:44:06.893Z,60.01
2023-02-18T09:47:18.443Z,60.22
2023-02-18T09:50:29.019Z,59.92
2023-02-18T09:53:35.277Z,59.93
2023-02-18T09:56:40.765Z,59.88
2023-02-18T09:59:49.002Z,59.89
2023-02-18T10:03:00.390Z,59.81
2023-02-18T10:06:12.199Z,59.85
2023-02-18T10:09:22.780Z,59.70
2023-02-18T10:12:33.052Z,59.77
2023-02-18T10:15:42.155Z,59.77
2023-02-18T10:18:50.384Z,59.64
2023-02-18T10:21:58.687Z,59.59
2023-02-18T10:25:08.255Z,59.54
2023-02-18T10:28:14.687Z,59.58
2023-02-18T10:31:27.045Z,59.38
2023-02-18T10:34:43.561Z,59.57
2023-02-18T10:38:03.013Z,59.30
2023-02-18T10:41:19.231Z,59.02
2023-02-18T10:44:37.963Z,59.00
2023-02-18T10:47:52.399Z,58.94
2023-02-18T10:51:01.757Z,58.97
2023-02-18T10:54:10.115Z,58.77
2023-02-18T10:57:21.618Z,58.51
2023-02-18T11:00:29.087Z,58.58
2023-02-18T11:03:45.242Z,58.61
2023-02-18T11:06:53.228Z,58.22
2023-02-18T11:10:01.873Z,58.28
2023-02-18T11:13:10.405Z,58.32
2023-02-18T11:16:17.430Z,57.87
2023-02-18T11:19:38.121Z,57.89
2023-02-18T11:22:44.287Z,58.05
2023-02-18T11:26:06.089Z,57.94
2023-02-18T11:29:21.303Z,58.12
2023-02-18T11:32:30.730Z,57.99
2023-02-18T11:35:39.019Z,58.09
2023-02-18T11:38:49.787Z,58.08
2023-02-18T11:42:00.460Z,57.96
2023-02-18T11:45:07.274Z,57.88
2023-02-18T11:48:20.072Z,57.96
2023-02-18T11:51:28.131Z,57.98
2023-02-18T11:54:36.129Z,57.89
2023-02-18T11:57:45.311Z,57.82
2023-02-18T12:00:53.068Z,57.82
2023-02-18T12:04:05.556Z,57.97
2023-02-18T12:07:20.599Z,58.04
2023-02-18T12:10:31.345Z,57.97
2023-02-18T12:13:42.763Z,58.01
2023-02-18T12:17:13.350Z,58.06
2023-02-18T12:20:49.475Z,58.17
2023-02-18T12:24:05.139Z,58.29
2023-02-18T12:27:18.887Z,58.44
2023-02-18T12:31:00.723Z,58.37
2023-02-18T12:34:26.111Z,58.37
2023-02-18T12:37:58.269Z,58.65
2023-02-18T12:41:20.504Z,58.61
2023-02-18T12:44:45.658Z,58.65
2023-02-18T12:48:11.525Z,58.86
2023-02-18T12:51:40.648Z,58.83
2023-02-18T12:55:18.569Z,58.92
2023-02-18T12:58:38.642Z,58.98
2023-02-18T13:02:02.123Z,59.08
2023-02-18T13:05:17.098Z,59.27
2023-02-18T13:08:38.714Z,59.35
2023-02-18T13:11:56.645Z,59.39
2023-02-18T13:15:07.956Z,59.53
2023-02-18T13:18:18.109Z,59.66
2023-02-18T13:21:26.540Z,59.70
2023-02-18T13:24:35.256Z,59.83
2023-02-18T13:27:47.076Z,59.98
2023-02-18T13:31:00.382Z,60.04
2023-02-18T13:34:14.208Z,59.90
2023-02-18T13:37:27.934Z,60.10
2023-02-18T13:40:35.444Z,60.22
2023-02-18T13:43:41.718Z,60.19
2023-02-18T13:46:53.151Z,60.30
2023-02-18T13:49:59.219Z,60.53
2023-02-18T13:53:30.903Z,60.55
2023-02-18T13:56:41.892Z,60.65
2023-02-18T13:59:49.853Z,60.68
2023-02-18T14:03:04.199Z,60.76
2023-02-18T14:06:21.407Z,60.82
2023-02-18T14:09:42.996Z,60.79
2023-02-18T14:13:20.019Z,60.98
2023-02-18T14:16:26.389Z,60.97
2023-02-18T14:19:33.217Z,61.01
2023-02-18T14:22:49.157Z,61.02
2023-02-18T14:25:57.381Z,60.98
2023-02-18T14:29:09.755Z,61.23
2023-02-18T14:32:19.313Z,61.37
2023-02-18T14:35:34.195Z,61.37
2023-02-18T14:38:49.956Z,61.49
2023-02-18T14:42:02.979Z,61.53
2023-02-18T14:45:28.396Z,61.62
2023-02-18T14:48:52.489Z,61.59
2023-02-18T14:52:00.449Z,61.64
2023-02-18T14:55:09.579Z,61.91
2023-02-18T14:58:29.409Z,62.01
2023-02-18T15:01:38.544Z,61.93
2023-02-18T15:04:46.017Z,62.07
2023-02-18T15:08:04.075Z,62.15
2023-02-18T15:11:13.126Z,62.29
2023-02-18T15:14:25.949Z,62.53
2023-02-18T15:17:32.228Z,62.66
2023-02-18T15:20:39.820Z,62.69
2023-02-18T15:23:46.045Z,63.07
2023-02-18T15:26:52.176Z,63.27
2023-02-18T15:30:00.973Z,63.59
2023-02-18T15:33:15.251Z,63.75
2023-02-18T15:36:21.982Z,64.08
2023-02-18T15:39:28.650Z,64.30
2023-02-18T15:42:37.703Z,64.55
2023-02-18T15:45:46.010Z,64.53
2023-02-18T15:48:53.591Z,64.71
2023-02-18T15:52:02.346Z,64.82
2023-02-18T15:55:15.911Z,65.26
2023-02-18T15:58:26.217Z,65.35
2023-02-18T16:01:32.851Z,65.46
2023-02-18T16:04:42.444Z,65.79
2023-02-18T16:07:58.737Z,65.98
2023-02-18T16:11:07.676Z,66.28
2023-02-18T16:14:28.175Z,66.59
2023-02-18T16:17:35.195Z,66.77
2023-02-18T16:20:42.358Z,67.01
2023-02-18T16:23:58.067Z,67.05
2023-02-18T16:27:08.091Z,67.22
2023-02-18T16:30:20.365Z,67.53
2023-02-18T16:33:26.597Z,67.86
2023-02-18T16:36:31.076Z,67.86
2023-02-18T16:39:37.784Z,67.86
2023-02-18T16:42:43.972Z,68.05
2023-02-18T16:45:50.027Z,68.30
2023-02-18T16:48:57.420Z,68.33
2023-02-18T16:52:08.221Z,68.46
2023-02-18T16:55:20.685Z,68.50
2023-02-18T16:58:26.844Z,68.66
2023-02-18T17:01:32.205Z,68.79
2023-02-18T17:04:38.895Z,69.04
2023-02-18T17:07:45.087Z,69.10
2023-02-18T17:10:52.781Z,69.11
2023-02-18T17:13:59.490Z,69.22
2023-02-18T17:17:11.825Z,69.25
2023-02-18T17:20:18.394Z,69.44
2023-02-18T17:23:26.173Z,69.57
2023-02-18T17:26:33.353Z,69.70
2023-02-18T17:29:39.617Z,70.01
2023-02-18T17:32:44.890Z,70.27
2023-02-18T17:35:51.224Z,70.28
2023-02-18T17:38:57.644Z,70.37
2023-02-18T17:42:03.805Z,70.77
2023-02-18T17:45:17.253Z,70.89
2023-02-18T17:48:23.691Z,71.00
2023-02-18T17:51:30.407Z,71.10
2023-02-18T17:54:36.585Z,71.15
2023-02-18T17:57:40.982Z,71.34
2023-02-18T18:00:50.524Z,71.54
2023-02-18T18:03:56.732Z,71.54
2023-02-18T18:07:01.236Z,71.62
2023-02-18T18:10:09.694Z,71.80
2023-02-18T18:13:20.354Z,71.84
2023-02-18T18:16:27.315Z,71.96
2023-02-18T18:19:34.278Z,71.91
2023-02-18T18:22:42.845Z,71.90
2023-02-18T18:25:50.740Z,71.99
2023-02-18T18:33:20.433Z,72.11
2023-02-18T18:36:26.837Z,72.19
2023-02-18T18:39:33.327Z,72.25
2023-02-18T18:42:39.429Z,72.63
2023-02-18T18:45:46.525Z,72.64
2023-02-18T18:48:52.736Z,72.63
2023-02-18T18:51:57.238Z,72.81
2023-02-18T18:55:03.410Z,73.06
2023-02-18T18:58:07.943Z,73.14
2023-02-18T19:01:18.867Z,73.37
2023-02-18T19:04:26.150Z,73.44
2023-02-18T19:07:32.968Z,73.54
2023-02-18T19:10:40.469Z,73.46
2023-02-18T19:13:46.874Z,73.65
2023-02-18T19:16:56.015Z,73.73
2023-02-18T19:20:02.762Z,73.74
2023-02-18T19:23:09.568Z,73.93
2023-02-18T19:26:18.204Z,73.92
2023-02-18T19:29:24.539Z,73.95
2023-02-18T19:32:30.930Z,74.08
2023-02-18T19:35:39.940Z,74.18
2023-02-18T19:38:46.956Z,74.24
2023-02-18T19:41:53.238Z,74.27
2023-02-18T19:44:58.052Z,74.23
2023-02-18T19:48:06.759Z,74.28
2023-02-18T19:51:14.717Z,74.27
2023-02-18T19:54:20.948Z,74.17
2023-02-18T19:57:25.656Z,74.37
2023-02-18T20:00:31.912Z,74.38
2023-02-18T20:03:36.529Z,74.40
2023-02-18T20:06:43.029Z,74.34
2023-02-18T20:09:52.249Z,74.33
2023-02-18T20:12:58.532Z,74.35
2023-02-18T20:16:06.712Z,74.36
2023-02-18T20:19:13.526Z,74.34
2023-02-18T20:22:19.818Z,74.29
2023-02-18T20:25:26.753Z,74.32
2023-02-18T20:28:33.025Z,74.25
2023-02-18T20:31:37.836Z,74.19
2023-02-18T20:34:44.108Z,74.30
2023-02-18T20:37:48.669Z,74.27
2023-02-18T20:40:54.890Z,74.41
2023-02-18T20:44:01.995Z,74.30
2023-02-18T20:47:08.820Z,74.33
2023-02-18T20:50:15.933Z,74.32
2023-02-18T20:53:22.071Z,74.31
2023-02-18T20:56:30.791Z,74.28
2023-02-18T20:59:37.446Z,74.25
2023-02-18T21:02:43.747Z,74.24
2023-02-18T21:05:57.425Z,74.20
2023-02-18T21:09:03.695Z,74.15
2023-02-18T21:12:09.794Z,74.22
2023-02-18T21:15:16.005Z,74.24
2023-02-18T21:18:20.447Z,74.36
2023-02-18T21:21:27.058Z,74.38
2023-02-18T21:24:33.422Z,74.56
2023-02-18T21:27:39.631Z,74.60
2023-02-18T21:30:45.492Z,74.49
2023-02-18T21:33:49.940Z,74.52
2023-02-18T21:36:56.028Z,74.53
2023-02-18T21:40:02.274Z,74.50
2023-02-18T21:43:06.789Z,74.36
2023-02-18T21:46:17.850Z,74.56
2023-02-18T21:49:24.129Z,74.88
2023-02-18T21:52:29.108Z,74.89
2023-02-18T21:55:35.318Z,74.99
2023-02-18T21:58:41.816Z,74.99
2023-02-18T22:01:48.055Z,75.11
2023-02-18T22:04:53.055Z,75.33
2023-02-18T22:07:59.098Z,75.26
2023-02-18T22:11:07.311Z,75.31
2023-02-18T22:14:14.849Z,75.19
2023-02-18T22:17:22.299Z,75.34
2023-02-18T22:20:28.557Z,75.28
2023-02-18T22:23:33.671Z,75.36
2023-02-18T22:26:39.946Z,75.31
2023-02-18T22:29:44.491Z,75.44
2023-02-18T22:32:50.717Z,75.55
2023-02-18T22:35:56.878Z,75.59
2023-02-18T22:39:03.652Z,75.83
2023-02-18T22:42:09.930Z,75.93
2023-02-18T22:45:14.464Z,75.93
2023-02-18T22:48:20.749Z,75.97
2023-02-18T22:51:26.098Z,76.01
2023-02-18T22:54:32.348Z,76.17
2023-02-18T22:57:38.802Z,76.34
2023-02-18T23:00:45.119Z,76.31
2023-02-18T23:03:49.612Z,76.23
2023-02-18T23:06:56.932Z,76.41
2023-02-18T23:10:03.241Z,76.38
2023-02-18T23:13:09.408Z,76.51
2023-02-18T23:16:16.808Z,76.66
2023-02-18T23:19:23.337Z,76.69
2023-02-18T23:22:33.608Z,76.88
2023-02-18T23:25:39.952Z,76.79
2023-02-18T23:28:49.386Z,76.82
2023-02-18T23:31:55.659Z,76.82
2023-02-18T23:35:01.825Z,76.89
2023-02-18T23:38:08.085Z,77.11
2023-02-18T23:41:12.602Z,77.07
2023-02-18T23:44:20.682Z,77.13
2023-02-18T23:47:27.179Z,77.08
2023-02-18T23:50:33.368Z,77.19
2023-02-18T23:53:40.133Z,77.23
2023-02-18T23:56:46.404Z,77.23
2023-02-18T23:59:50.919Z,77.22
